Time;durP1;ratioP1;P1;durP2;ratioP2;P2;SDS_P1;SDS_P2;PMS_P1;PMS_P2;Temp;Humidity;BMP_temperature;BMP_pressure;BME280_temperature;BME280_humidity;BME280_pressure;Samples;Min_cycle;Max_cycle;Signal;HPM_P1;HPM_P2
2022/08/03 00:01:06;;;;;;;4.10;2.20;;;21.20;99.90;;;;;;5042139;28;21027;-71
2022/08/03 00:03:33;;;;;;;11.53;4.40;;;21.30;99.90;;;;;;5045472;28;20482;-72
2022/08/03 00:06:00;;;;;;;3.70;3.30;;;21.30;99.90;;;;;;5046198;28;20486;-71
2022/08/03 00:08:28;;;;;;;7.43;2.60;;;21.20;99.90;;;;;;5034694;28;20459;-71
2022/08/03 00:10:56;;;;;;;5.87;2.80;;;21.20;99.90;;;;;;5027694;28;20474;-71
2022/08/03 00:13:22;;;;;;;5.60;2.57;;;21.10;99.90;;;;;;5044744;28;20506;-71
2022/08/03 00:15:49;;;;;;;3.40;2.57;;;21.20;99.90;;;;;;5044740;28;20452;-71
2022/08/03 00:18:16;;;;;;;4.73;3.10;;;21.10;99.90;;;;;;5051512;28;20463;-71
2022/08/03 00:20:43;;;;;;;2.50;2.30;;;21.10;99.90;;;;;;5046646;28;20487;-71
2022/08/03 00:23:10;;;;;;;3.60;2.80;;;21.10;99.90;;;;;;5053894;28;20482;-71
2022/08/03 00:25:38;;;;;;;3.80;2.90;;;21.10;99.90;;;;;;5046724;28;20986;-71
2022/08/03 00:28:06;;;;;;;2.10;1.90;;;21.20;99.90;;;;;;5055717;28;20459;-71
2022/08/03 00:30:33;;;;;;;9.73;2.70;;;21.20;99.90;;;;;;5045647;28;20470;-71
2022/08/03 00:33:00;;;;;;;2.83;2.40;;;21.20;99.90;;;;;;5054593;28;20469;-71
2022/08/03 00:35:27;;;;;;;7.40;3.30;;;21.20;99.90;;;;;;5047192;28;20468;-71
2022/08/03 00:37:54;;;;;;;4.47;3.17;;;21.10;99.90;;;;;;5046787;28;20539;-71
2022/08/03 00:40:21;;;;;;;3.63;2.20;;;21.10;99.90;;;;;;5050300;28;20482;-71
2022/08/03 00:42:54;;;;;;;3.23;2.10;;;21.00;99.90;;;;;;5053992;28;20485;-71
2022/08/03 00:45:23;;;;;;;2.60;2.10;;;20.90;99.90;;;;;;5045042;28;20459;-71
2022/08/03 00:47:50;;;;;;;4.60;2.40;;;20.90;99.90;;;;;;5043000;28;20471;-71
2022/08/03 00:50:18;;;;;;;4.40;3.70;;;21.00;99.90;;;;;;5052326;28;20432;-71
2022/08/03 00:52:45;;;;;;;4.53;2.67;;;21.00;99.90;;;;;;5052792;28;20493;-71
2022/08/03 00:55:12;;;;;;;7.60;3.33;;;20.90;99.90;;;;;;5056396;28;20456;-71
2022/08/03 00:57:40;;;;;;;2.20;1.87;;;20.90;99.90;;;;;;5050272;28;20833;-72
2022/08/03 01:00:10;;;;;;;3.07;2.50;;;20.80;99.90;;;;;;5043340;28;20479;-72
2022/08/03 01:02:38;;;;;;;5.07;3.70;;;20.70;99.90;;;;;;5050323;28;20483;-72
2022/08/03 01:05:06;;;;;;;4.73;2.57;;;20.70;99.90;;;;;;5052992;28;20558;-72
2022/08/03 01:07:42;;;;;;;3.23;2.93;;;20.80;99.90;;;;;;5046302;28;20474;-71
2022/08/03 01:10:15;;;;;;;2.80;2.20;;;20.70;99.90;;;;;;5042907;28;20856;-72
2022/08/03 01:12:48;;;;;;;6.10;2.67;;;20.70;99.90;;;;;;5050780;28;20487;-71
2022/08/03 01:15:25;;;;;;;3.53;2.20;;;20.70;99.90;;;;;;5045993;28;20513;-72
2022/08/03 01:17:57;;;;;;;5.23;2.17;;;20.70;99.90;;;;;;5042480;28;20455;-72
2022/08/03 01:20:27;;;;;;;3.80;3.50;;;20.70;99.90;;;;;;5050570;28;20474;-72
2022/08/03 01:23:27;;;;;;;2.37;1.97;;;20.70;99.90;;;;;;5050737;28;20495;-71
2022/08/03 01:26:03;;;;;;;4.13;2.60;;;20.60;99.90;;;;;;5004558;28;20838;-71
2022/08/03 01:28:47;;;;;;;3.30;2.60;;;20.50;99.90;;;;;;5053027;28;20450;-71
2022/08/03 01:31:24;;;;;;;2.20;2.00;;;20.50;99.90;;;;;;5047847;28;20460;-71
2022/08/03 01:33:57;;;;;;;2.57;2.37;;;20.60;99.90;;;;;;5041778;28;20481;-71
2022/08/03 01:36:29;;;;;;;11.03;3.00;;;20.70;99.90;;;;;;5040923;28;20866;-71
2022/08/03 01:39:01;;;;;;;3.50;2.43;;;20.70;99.90;;;;;;5046784;28;20559;-71
2022/08/03 01:41:32;;;;;;;2.73;2.30;;;20.60;99.90;;;;;;5048669;28;20594;-72
2022/08/03 01:44:01;;;;;;;3.47;2.60;;;20.60;99.90;;;;;;5040940;28;20483;-72
2022/08/03 01:46:31;;;;;;;3.50;2.03;;;20.50;99.90;;;;;;5049634;28;20463;-72
2022/08/03 01:48:59;;;;;;;2.60;2.20;;;20.40;99.90;;;;;;5048878;28;20535;-72
2022/08/03 01:51:27;;;;;;;2.57;2.03;;;20.40;99.90;;;;;;5053621;28;20458;-72
2022/08/03 01:53:55;;;;;;;4.30;2.50;;;20.40;99.90;;;;;;5039876;28;20483;-72
2022/08/03 01:56:24;;;;;;;3.30;2.63;;;20.40;99.90;;;;;;5048489;28;20495;-71
2022/08/03 01:58:53;;;;;;;3.03;2.33;;;20.50;99.90;;;;;;5039034;28;20583;-71
2022/08/03 02:01:22;;;;;;;3.90;2.20;;;20.40;99.90;;;;;;5044155;28;20565;-72
2022/08/03 02:03:52;;;;;;;2.33;2.13;;;20.50;99.90;;;;;;5047862;28;20477;-72
2022/08/03 02:06:22;;;;;;;11.33;2.47;;;20.50;99.90;;;;;;5051739;28;21023;-72
2022/08/03 02:08:49;;;;;;;4.07;3.30;;;20.40;99.90;;;;;;5054543;28;20537;-72
2022/08/03 02:11:17;;;;;;;7.20;2.70;;;20.40;99.90;;;;;;5047152;28;20551;-72
2022/08/03 02:13:45;;;;;;;3.47;2.40;;;20.40;99.90;;;;;;5049956;28;20484;-72
2022/08/03 02:16:14;;;;;;;2.43;2.23;;;20.40;99.90;;;;;;5050059;28;20463;-72
2022/08/03 02:18:42;;;;;;;4.80;2.40;;;20.40;99.90;;;;;;5040373;28;20470;-73
2022/08/03 02:21:11;;;;;;;3.10;2.60;;;20.30;99.90;;;;;;5051387;28;20479;-71
2022/08/03 02:23:40;;;;;;;2.73;2.10;;;20.30;99.90;;;;;;5056038;28;20510;-71
2022/08/03 02:26:10;;;;;;;3.53;2.30;;;20.40;99.90;;;;;;5053812;28;20459;-72
2022/08/03 02:28:41;;;;;;;3.60;2.47;;;20.40;99.90;;;;;;5051040;28;20468;-71
2022/08/03 02:31:15;;;;;;;3.73;2.43;;;20.40;99.90;;;;;;5049299;28;20646;-71
2022/08/03 02:33:46;;;;;;;3.30;2.53;;;20.40;99.90;;;;;;5050939;28;20518;-72
2022/08/03 02:36:15;;;;;;;5.23;2.30;;;20.40;99.90;;;;;;5045915;28;20451;-73
2022/08/03 02:38:44;;;;;;;3.10;2.03;;;20.40;99.90;;;;;;5054677;28;20443;-72
2022/08/03 02:41:17;;;;;;;10.83;3.27;;;20.30;99.90;;;;;;5046009;28;20482;-72
2022/08/03 02:43:48;;;;;;;4.93;2.93;;;20.30;99.90;;;;;;5042891;28;20487;-72
2022/08/03 02:46:19;;;;;;;7.00;2.93;;;20.10;99.90;;;;;;5049577;28;20451;-72
2022/08/03 02:48:47;;;;;;;2.30;1.90;;;20.00;99.90;;;;;;5045362;28;20555;-71
2022/08/03 02:51:18;;;;;;;4.83;2.60;;;19.80;99.90;;;;;;5053388;28;20458;-71
2022/08/03 02:53:47;;;;;;;6.00;2.83;;;19.80;99.90;;;;;;5057306;28;20626;-71
2022/08/03 02:56:16;;;;;;;3.13;2.57;;;19.90;99.90;;;;;;5051056;28;20459;-72
2022/08/03 02:58:45;;;;;;;5.60;2.67;;;19.90;99.90;;;;;;5050993;28;20455;-71
2022/08/03 03:01:12;;;;;;;4.03;2.77;;;20.00;99.90;;;;;;5048204;28;20642;-72
2022/08/03 03:03:41;;;;;;;4.93;4.53;;;19.90;99.90;;;;;;5050986;28;20486;-72
2022/08/03 03:06:09;;;;;;;3.17;2.87;;;19.90;99.90;;;;;;5044907;28;20900;-71
2022/08/03 03:08:37;;;;;;;4.43;3.00;;;19.90;99.90;;;;;;5042331;28;20462;-71
2022/08/03 03:11:04;;;;;;;5.17;3.17;;;19.80;99.90;;;;;;5042828;28;20695;-71
2022/08/03 03:13:32;;;;;;;3.90;2.60;;;19.80;99.90;;;;;;5049341;28;20489;-71
2022/08/03 03:16:02;;;;;;;3.03;2.27;;;19.80;99.90;;;;;;5047439;28;20868;-72
2022/08/03 03:18:30;;;;;;;7.03;3.00;;;19.80;99.90;;;;;;5052517;28;20461;-72
2022/08/03 03:20:58;;;;;;;4.47;2.83;;;19.80;99.90;;;;;;5046668;28;20585;-72
2022/08/03 03:23:26;;;;;;;3.50;2.53;;;19.80;99.90;;;;;;5053523;28;20487;-72
2022/08/03 03:25:57;;;;;;;4.37;3.07;;;19.80;99.90;;;;;;5053734;28;20466;-72
2022/08/03 03:28:24;;;;;;;7.10;3.50;;;19.60;99.90;;;;;;5039369;28;20491;-72
2022/08/03 03:30:52;;;;;;;3.53;2.70;;;19.20;99.90;;;;;;5037956;28;21324;-72
2022/08/03 03:33:19;;;;;;;3.83;2.40;;;19.30;99.90;;;;;;5044985;28;20483;-72
2022/08/03 03:35:46;;;;;;;5.90;2.70;;;19.40;99.90;;;;;;5041943;28;21335;-72
2022/08/03 03:38:13;;;;;;;5.97;2.27;;;19.50;99.90;;;;;;5050859;28;21239;-72
2022/08/03 03:40:41;;;;;;;4.00;2.60;;;19.50;99.90;;;;;;5041890;28;20490;-71
2022/08/03 03:43:10;;;;;;;5.83;2.80;;;19.60;99.90;;;;;;5046917;28;20480;-72
2022/08/03 03:45:40;;;;;;;16.10;3.90;;;19.50;99.90;;;;;;5046922;28;20473;-71
2022/08/03 03:48:08;;;;;;;7.63;3.70;;;19.50;99.90;;;;;;5045780;28;20832;-72
2022/08/03 03:50:39;;;;;;;5.43;2.57;;;19.60;99.90;;;;;;5041835;28;20811;-71
2022/08/03 03:53:09;;;;;;;10.90;3.40;;;19.60;99.90;;;;;;5062106;22;20466;-71
2022/08/03 03:55:37;;;;;;;9.37;4.23;;;19.60;99.90;;;;;;4998870;28;21164;-72
2022/08/03 03:58:04;;;;;;;10.57;3.97;;;19.60;99.90;;;;;;5016421;28;20466;-70
2022/08/03 04:00:33;;;;;;;23.37;4.00;;;19.60;99.90;;;;;;5012132;28;20472;-71
2022/08/03 04:02:59;;;;;;;16.80;4.00;;;19.50;99.90;;;;;;5016053;28;20955;-72
2022/08/03 04:11:09;;;;;;;7.20;2.87;;;19.30;99.90;;;;;;5009805;28;20491;-72
2022/08/03 04:13:39;;;;;;;7.43;5.43;;;19.30;99.90;;;;;;5016276;28;20495;-71
2022/08/03 04:16:11;;;;;;;19.97;5.03;;;19.30;99.90;;;;;;5013095;28;20460;-73
2022/08/03 04:18:40;;;;;;;42.07;6.03;;;19.40;99.90;;;;;;5010571;28;20456;-72
2022/08/03 04:21:10;;;;;;;13.17;3.63;;;19.40;99.90;;;;;;5012594;28;20488;-71
2022/08/03 04:23:41;;;;;;;18.77;5.33;;;19.40;99.90;;;;;;5007356;28;20487;-71
2022/08/03 04:26:11;;;;;;;10.70;3.20;;;19.40;99.90;;;;;;5014379;28;20465;-70
2022/08/03 04:28:41;;;;;;;10.60;3.07;;;19.50;99.90;;;;;;5007371;28;20453;-71
2022/08/03 04:31:10;;;;;;;13.87;3.60;;;19.50;99.90;;;;;;5013102;28;20459;-70
2022/08/03 04:33:39;;;;;;;18.47;4.50;;;19.50;99.90;;;;;;5019277;28;20969;-72
2022/08/03 04:36:08;;;;;;;7.03;3.60;;;19.50;99.90;;;;;;5025947;28;21217;-71
2022/08/03 04:38:39;;;;;;;9.27;2.80;;;19.60;99.90;;;;;;5023531;28;21032;-72
2022/08/03 04:41:07;;;;;;;15.30;4.00;;;19.60;99.90;;;;;;5025347;28;20550;-72
2022/08/03 04:43:34;;;;;;;16.97;3.90;;;19.60;99.90;;;;;;5026842;28;20456;-73
2022/08/03 04:46:02;;;;;;;6.37;3.17;;;19.60;99.90;;;;;;5025063;28;20453;-72
2022/08/03 04:48:31;;;;;;;10.93;3.70;;;19.70;99.90;;;;;;5025877;28;20831;-72
2022/08/03 04:50:59;;;;;;;5.93;3.00;;;19.80;99.90;;;;;;5026280;28;20643;-72
2022/08/03 04:53:26;;;;;;;8.53;2.60;;;19.90;99.90;;;;;;5026676;28;20839;-71
2022/08/03 04:55:53;;;;;;;12.60;3.97;;;20.00;99.90;;;;;;5028107;28;20762;-72
2022/08/03 04:58:20;;;;;;;9.17;4.30;;;20.00;99.90;;;;;;5026640;28;20479;-71
2022/08/03 05:00:50;;;;;;;11.37;3.50;;;20.10;99.90;;;;;;5025911;28;20441;-72
2022/08/03 05:03:16;;;;;;;6.77;3.43;;;20.10;99.90;;;;;;5026608;28;20469;-71
2022/08/03 05:05:45;;;;;;;5.20;3.13;;;20.30;99.90;;;;;;5023992;28;20777;-72
2022/08/03 05:08:11;;;;;;;16.80;3.80;;;20.50;99.90;;;;;;5021207;28;20544;-72
2022/08/03 05:10:38;;;;;;;9.20;2.93;;;20.80;99.90;;;;;;5023250;28;20471;-72
2022/08/03 05:13:10;;;;;;;11.07;5.23;;;21.10;99.90;;;;;;5030660;28;20447;-72
2022/08/03 05:15:37;;;;;;;10.10;3.43;;;21.40;99.90;;;;;;4996165;28;22220;-72
2022/08/03 05:18:04;;;;;;;7.27;4.37;;;21.80;99.90;;;;;;5025657;28;22000;-70
2022/08/03 05:20:31;;;;;;;18.53;4.67;;;21.90;99.90;;;;;;5024394;28;20833;-72
2022/08/03 05:23:00;;;;;;;10.87;4.83;;;21.90;99.90;;;;;;5021984;28;20516;-72
2022/08/03 05:25:27;;;;;;;11.47;4.73;;;22.30;99.90;;;;;;5024378;28;20473;-72
2022/08/03 05:27:54;;;;;;;25.67;4.47;;;22.60;99.90;;;;;;5022954;28;20460;-72
2022/08/03 05:30:21;;;;;;;33.37;4.60;;;22.50;99.90;;;;;;5023417;28;20466;-72
2022/08/03 05:32:48;;;;;;;12.40;3.47;;;22.70;99.90;;;;;;5023977;28;20462;-72
2022/08/03 05:35:15;;;;;;;16.37;3.90;;;23.30;99.90;;;;;;5022995;28;20465;-73
2022/08/03 05:37:41;;;;;;;16.67;4.90;;;23.80;99.90;;;;;;5023620;28;20524;-72
2022/08/03 05:40:11;;;;;;;9.60;3.40;;;23.80;99.90;;;;;;5030043;28;20465;-72
2022/08/03 05:42:38;;;;;;;7.13;3.77;;;24.20;99.90;;;;;;5025189;28;21070;-72
2022/08/03 05:45:13;;;;;;;6.80;4.43;;;24.80;99.90;;;;;;5015038;28;20485;-72
2022/08/03 05:47:40;;;;;;;15.83;3.57;;;25.30;99.90;;;;;;5045905;28;20471;-71
2022/08/03 05:50:08;;;;;;;6.77;2.70;;;25.80;99.90;;;;;;5045598;28;20488;-71
2022/08/03 05:52:35;;;;;;;16.23;3.67;;;26.00;99.90;;;;;;5040692;28;20453;-71
2022/08/03 05:55:02;;;;;;;7.17;3.43;;;26.20;99.90;;;;;;5033180;28;20500;-73
2022/08/03 05:57:30;;;;;;;11.60;3.20;;;26.60;99.90;;;;;;5022134;28;20506;-71
2022/08/03 05:59:57;;;;;;;16.13;4.53;;;27.00;99.90;;;;;;5018366;28;21163;-72
2022/08/03 06:02:23;;;;;;;6.83;3.57;;;27.10;99.90;;;;;;5029868;28;21127;-72
2022/08/03 06:04:50;;;;;;;7.03;2.60;;;27.40;99.90;;;;;;5028489;28;20481;-72
2022/08/03 06:07:17;;;;;;;3.97;2.97;;;27.90;99.90;;;;;;5025793;28;20459;-72
2022/08/03 06:09:44;;;;;;;4.90;2.80;;;28.20;99.90;;;;;;5014456;28;20581;-73
2022/08/03 06:12:11;;;;;;;4.37;2.40;;;28.20;99.90;;;;;;5020029;28;20481;-72
2022/08/03 06:14:39;;;;;;;3.20;2.33;;;28.50;99.90;;;;;;5021380;28;20896;-72
2022/08/03 06:17:06;;;;;;;3.83;2.33;;;28.70;99.90;;;;;;5011308;28;20531;-74
2022/08/03 06:19:33;;;;;;;2.50;2.30;;;28.70;99.90;;;;;;5015210;28;20458;-73
2022/08/03 06:22:00;;;;;;;10.57;2.37;;;29.30;99.90;;;;;;5021289;28;20476;-71
2022/08/03 06:24:29;;;;;;;4.33;2.40;;;29.60;99.90;;;;;;5023660;28;20486;-71
2022/08/03 06:26:56;;;;;;;4.23;2.40;;;29.50;99.90;;;;;;5024024;28;20534;-73
2022/08/03 06:29:23;;;;;;;3.80;1.93;;;29.60;99.90;;;;;;5024296;28;20461;-72
2022/08/03 06:31:51;;;;;;;2.87;2.30;;;29.90;99.90;;;;;;5019849;28;20432;-71
2022/08/03 06:34:18;;;;;;;5.27;2.10;;;29.90;99.90;;;;;;5022785;28;20586;-72
2022/08/03 06:36:47;;;;;;;2.93;2.03;;;29.80;99.90;;;;;;5021586;28;20482;-72
2022/08/03 06:39:14;;;;;;;4.63;2.40;;;30.10;99.90;;;;;;5021491;28;20492;-73
2022/08/03 06:41:41;;;;;;;5.23;2.37;;;30.10;99.90;;;;;;5019430;28;20525;-73
2022/08/03 06:44:08;;;;;;;4.93;2.90;;;30.00;99.90;;;;;;5024478;28;20468;-72
2022/08/03 06:46:36;;;;;;;3.80;2.60;;;30.20;99.90;;;;;;5019800;28;20471;-73
2022/08/03 06:49:05;;;;;;;6.73;4.10;;;30.40;99.90;;;;;;5025063;28;20435;-73
2022/08/03 06:51:32;;;;;;;2.73;2.00;;;30.40;99.90;;;;;;5024556;28;20798;-71
2022/08/03 06:53:58;;;;;;;3.73;2.30;;;30.40;99.90;;;;;;5021895;28;20492;-72
2022/08/03 06:56:25;;;;;;;6.30;2.20;;;30.80;99.90;;;;;;5017734;28;20507;-72
2022/08/03 06:58:52;;;;;;;5.90;2.90;;;31.10;99.90;;;;;;5017452;28;20469;-72
2022/08/03 07:01:19;;;;;;;6.63;2.30;;;31.30;99.90;;;;;;5018824;28;21003;-71
2022/08/03 07:03:46;;;;;;;2.70;1.77;;;31.50;99.90;;;;;;5015878;28;20492;-71
2022/08/03 07:06:14;;;;;;;4.13;1.97;;;32.00;99.90;;;;;;5019719;28;20519;-73
2022/08/03 07:08:41;;;;;;;2.40;2.20;;;32.10;99.90;;;;;;5026624;28;20462;-73
2022/08/03 07:11:08;;;;;;;3.33;2.20;;;31.30;99.90;;;;;;5018982;28;20460;-72
2022/08/03 07:13:34;;;;;;;4.40;2.20;;;31.30;99.90;;;;;;5025238;28;20572;-72
2022/08/03 07:16:01;;;;;;;3.83;2.37;;;31.40;99.90;;;;;;5021134;28;21037;-73
2022/08/03 07:18:28;;;;;;;4.00;2.37;;;32.10;99.90;;;;;;5021344;28;20488;-71
2022/08/03 07:20:55;;;;;;;3.73;2.20;;;32.30;99.90;;;;;;5023901;28;20472;-72
2022/08/03 07:23:24;;;;;;;2.53;2.20;;;32.10;99.90;;;;;;5020717;28;20481;-73
2022/08/03 07:25:51;;;;;;;2.73;1.80;;;31.90;99.90;;;;;;5027525;28;20537;-73
2022/08/03 07:28:17;;;;;;;1.90;1.70;;;32.00;99.90;;;;;;5023870;28;20566;-73
2022/08/03 07:30:44;;;;;;;3.20;1.87;;;31.80;99.90;;;;;;5021421;28;20461;-72
2022/08/03 07:33:11;;;;;;;3.30;1.90;;;31.80;99.90;;;;;;5024864;28;20468;-72
2022/08/03 07:35:38;;;;;;;2.47;1.90;;;31.40;99.90;;;;;;5025154;28;20941;-72
2022/08/03 07:38:05;;;;;;;4.53;3.33;;;31.40;99.90;;;;;;5021551;28;20543;-73
2022/08/03 07:40:34;;;;;;;3.30;1.80;;;30.90;99.90;;;;;;5022871;28;20457;-73
2022/08/03 07:43:02;;;;;;;11.43;2.43;;;30.50;99.90;;;;;;5029429;28;21277;-73
2022/08/03 07:45:30;;;;;;;7.83;2.50;;;30.20;99.90;;;;;;5020716;28;20462;-73
2022/08/03 07:47:57;;;;;;;4.13;2.00;;;30.10;99.90;;;;;;5022479;28;20463;-73
2022/08/03 07:50:24;;;;;;;2.70;1.80;;;30.30;99.90;;;;;;5008131;28;20459;-72
2022/08/03 07:52:52;;;;;;;2.47;2.17;;;30.30;99.90;;;;;;5018861;28;20464;-72
2022/08/03 07:55:20;;;;;;;4.83;2.50;;;30.40;99.90;;;;;;5029063;28;20460;-73
2022/08/03 07:57:58;;;;;;;4.53;2.70;;;30.80;99.90;;;;;;5022328;28;20464;-72
2022/08/03 08:00:25;;;;;;;2.63;2.33;;;31.00;99.90;;;;;;5026994;28;20540;-73
2022/08/03 08:02:52;;;;;;;3.63;2.50;;;31.50;99.90;;;;;;5035912;28;20494;-72
2022/08/03 08:05:19;;;;;;;3.40;2.30;;;32.10;99.90;;;;;;5026511;28;20444;-73
2022/08/03 08:07:45;;;;;;;4.50;2.10;;;32.60;99.90;;;;;;5033648;28;20460;-72
2022/08/03 08:10:12;;;;;;;5.17;2.30;;;33.40;99.90;;;;;;5027746;28;20447;-73
2022/08/03 08:12:40;;;;;;;3.70;2.47;;;33.40;99.90;;;;;;5037750;28;20929;-73
2022/08/03 08:15:09;;;;;;;3.10;1.90;;;33.60;99.20;;;;;;5027128;28;20475;-73
2022/08/03 08:17:42;;;;;;;3.93;3.60;;;33.60;99.20;;;;;;5026353;28;21001;-72
2022/08/03 08:20:11;;;;;;;2.30;1.90;;;33.00;99.90;;;;;;5029622;28;20440;-72
2022/08/03 08:22:38;;;;;;;2.37;1.90;;;33.90;99.90;;;;;;5028773;28;20488;-72
2022/08/03 08:25:05;;;;;;;3.27;2.03;;;34.70;97.80;;;;;;5025960;28;20476;-72
2022/08/03 08:27:32;;;;;;;3.00;2.50;;;35.10;96.10;;;;;;5021496;28;20469;-71
2022/08/03 08:29:59;;;;;;;4.77;2.20;;;34.80;96.30;;;;;;5019698;28;20488;-72
2022/08/03 08:32:27;;;;;;;3.30;2.40;;;34.80;97.10;;;;;;5023690;28;20548;-71
2022/08/03 08:34:55;;;;;;;7.07;3.10;;;35.30;95.60;;;;;;5025653;28;20479;-71
2022/08/03 08:37:22;;;;;;;3.60;2.50;;;35.20;95.00;;;;;;5025755;28;20452;-71
2022/08/03 08:39:49;;;;;;;2.17;1.90;;;35.20;94.50;;;;;;5022166;28;20822;-70
2022/08/03 08:42:16;;;;;;;2.00;1.80;;;35.70;93.70;;;;;;5023678;28;20539;-73
2022/08/03 08:44:42;;;;;;;10.73;2.50;;;35.60;92.10;;;;;;5023434;28;20563;-72
2022/08/03 08:47:10;;;;;;;6.90;2.30;;;35.40;93.60;;;;;;5025870;28;20820;-73
2022/08/03 08:49:39;;;;;;;5.30;2.70;;;35.70;92.30;;;;;;5030661;28;20884;-71
2022/08/03 08:52:08;;;;;;;2.10;1.90;;;36.00;92.30;;;;;;5030576;28;20461;-71
2022/08/03 08:54:37;;;;;;;2.83;1.90;;;36.10;92.70;;;;;;5024002;28;21108;-72
2022/08/03 08:57:05;;;;;;;2.30;2.10;;;36.80;91.30;;;;;;5020967;28;20448;-71
2022/08/03 08:59:34;;;;;;;3.50;2.00;;;37.10;89.70;;;;;;5032573;28;20448;-73
2022/08/03 09:02:01;;;;;;;3.00;2.37;;;36.90;89.10;;;;;;5027370;28;20471;-72
2022/08/03 09:04:29;;;;;;;4.03;2.00;;;37.10;86.00;;;;;;5023711;28;20490;-72
2022/08/03 09:06:57;;;;;;;3.30;3.00;;;37.30;86.40;;;;;;5028047;28;20470;-71
2022/08/03 09:09:24;;;;;;;9.87;2.23;;;37.10;85.70;;;;;;5027975;28;20497;-72
2022/08/03 09:11:51;;;;;;;9.23;2.83;;;37.10;84.60;;;;;;5026961;28;20484;-72
2022/08/03 09:14:18;;;;;;;3.10;1.90;;;37.00;84.40;;;;;;5024009;28;20489;-72
2022/08/03 09:17:01;;;;;;;2.50;2.30;;;37.20;85.00;;;;;;5025436;28;20449;-72
2022/08/03 09:19:29;;;;;;;8.10;2.23;;;37.40;82.10;;;;;;5016212;28;20457;-73
2022/08/03 09:22:11;;;;;;;4.70;2.83;;;37.00;82.80;;;;;;5025576;28;20927;-72
2022/08/03 09:24:53;;;;;;;4.40;2.17;;;37.40;81.10;;;;;;5023460;28;20591;-72
2022/08/03 09:27:20;;;;;;;3.30;1.80;;;37.60;80.00;;;;;;5026309;28;21094;-72
2022/08/03 09:29:48;;;;;;;5.87;1.97;;;38.10;77.20;;;;;;5021925;28;20448;-72
2022/08/03 09:32:15;;;;;;;4.30;2.00;;;37.60;77.20;;;;;;5029633;28;20572;-72
2022/08/03 09:34:43;;;;;;;2.30;1.83;;;37.50;76.70;;;;;;5025176;28;20473;-72
2022/08/03 09:37:15;;;;;;;5.07;2.00;;;37.70;78.10;;;;;;5028180;28;20515;-72
2022/08/03 09:39:42;;;;;;;2.40;2.20;;;37.80;75.20;;;;;;5024890;28;20455;-72
2022/08/03 09:42:11;;;;;;;1.90;1.70;;;36.90;76.40;;;;;;5032950;28;20463;-72
2022/08/03 09:44:40;;;;;;;2.23;1.83;;;36.80;77.20;;;;;;5027580;28;20465;-72
2022/08/03 09:47:08;;;;;;;3.73;2.07;;;37.00;77.20;;;;;;5030416;28;20506;-72
2022/08/03 09:49:36;;;;;;;6.00;1.87;;;37.20;75.20;;;;;;5029898;28;20460;-72
2022/08/03 09:52:14;;;;;;;4.90;2.23;;;36.80;75.10;;;;;;5026621;28;20461;-72
2022/08/03 09:57:20;;;;;;;3.83;2.10;;;36.60;76.80;;;;;;5005263;28;20580;-72
2022/08/03 09:59:47;;;;;;;10.53;2.37;;;36.90;75.20;;;;;;5026782;28;20452;-71
2022/08/03 10:02:22;;;;;;;6.57;2.23;;;37.40;73.30;;;;;;5021983;28;20464;-72
2022/08/03 10:04:51;;;;;;;4.27;2.40;;;37.90;72.80;;;;;;5017267;28;20452;-72
2022/08/03 10:07:21;;;;;;;2.33;1.70;;;37.70;72.40;;;;;;5006348;28;20538;-72
2022/08/03 10:09:56;;;;;;;1.80;1.47;;;38.60;71.10;;;;;;5001212;28;20438;-72
2022/08/03 10:12:23;;;;;;;7.40;2.53;;;38.50;70.40;;;;;;5001293;28;20448;-72
2022/08/03 10:14:49;;;;;;;2.97;1.70;;;38.30;71.10;;;;;;5003160;28;20676;-72
2022/08/03 10:17:16;;;;;;;2.50;1.50;;;38.50;70.10;;;;;;5002577;28;20461;-72
2022/08/03 10:19:43;;;;;;;4.70;1.83;;;38.40;70.90;;;;;;5004461;28;20466;-72
2022/08/03 10:22:12;;;;;;;2.03;1.80;;;37.50;68.20;;;;;;5000637;28;20909;-72
2022/08/03 10:24:49;;;;;;;2.07;1.80;;;37.10;70.90;;;;;;5006392;28;20453;-72
2022/08/03 10:27:19;;;;;;;5.03;1.70;;;37.40;68.40;;;;;;5001421;28;20461;-72
2022/08/03 10:29:51;;;;;;;4.03;1.77;;;37.30;67.80;;;;;;5002772;28;20955;-72
2022/08/03 10:32:22;;;;;;;6.00;1.83;;;37.90;68.50;;;;;;5002741;28;20919;-72
2022/08/03 10:34:50;;;;;;;11.40;3.63;;;38.50;65.90;;;;;;5002204;28;20501;-73
2022/08/03 10:37:18;;;;;;;4.10;1.77;;;38.90;65.20;;;;;;5005095;28;20468;-72
2022/08/03 10:39:55;;;;;;;1.50;1.40;;;38.50;64.80;;;;;;5005635;28;20454;-72
2022/08/03 10:42:24;;;;;;;3.57;1.60;;;38.80;63.90;;;;;;5004577;28;20500;-72
2022/08/03 10:44:58;;;;;;;2.40;1.90;;;39.00;64.60;;;;;;5006461;28;20457;-73
2022/08/03 10:47:25;;;;;;;2.60;1.90;;;39.10;62.60;;;;;;5006475;28;20451;-72
2022/08/03 10:49:52;;;;;;;3.73;2.07;;;39.30;63.00;;;;;;5007214;28;20835;-72
2022/08/03 10:52:19;;;;;;;4.60;1.63;;;39.80;66.10;;;;;;5008540;28;21038;-73
2022/08/03 10:57:45;;;;;;;5.73;1.90;;;40.50;60.30;;;;;;5003601;28;20639;-71
2022/08/03 11:00:13;;;;;;;3.37;1.90;;;39.80;59.30;;;;;;5001874;28;20580;-72
2022/08/03 11:03:09;;;;;;;2.70;2.20;;;38.40;60.50;;;;;;5008965;28;20464;-73
2022/08/03 11:05:39;;;;;;;1.73;1.37;;;38.60;60.20;;;;;;5004934;28;20999;-73
2022/08/03 11:08:20;;;;;;;4.27;1.80;;;38.60;61.00;;;;;;5010495;28;20910;-72
2022/08/03 11:10:50;;;;;;;4.87;2.80;;;38.60;61.50;;;;;;5002176;28;20450;-72
2022/08/03 11:13:18;;;;;;;3.70;1.77;;;38.90;61.80;;;;;;5009523;28;20496;-72
2022/08/03 11:15:47;;;;;;;4.03;1.90;;;39.40;61.90;;;;;;5007847;28;20985;-73
2022/08/03 11:18:15;;;;;;;1.90;1.20;;;39.80;60.80;;;;;;5003792;28;20445;-72
2022/08/03 11:20:50;;;;;;;1.93;1.60;;;40.00;58.40;;;;;;5006650;28;20532;-72
2022/08/03 11:23:19;;;;;;;3.30;1.83;;;39.40;58.70;;;;;;5005390;28;20437;-73
2022/08/03 11:26:10;;;;;;;3.27;1.60;;;40.70;57.20;;;;;;5007265;28;20458;-73
2022/08/03 11:28:38;;;;;;;2.17;1.33;;;41.20;55.60;;;;;;5010528;28;20450;-72
2022/08/03 11:31:56;;;;;;;3.80;2.30;;;41.60;56.20;;;;;;5003782;28;20943;-72
2022/08/03 11:34:23;;;;;;;6.17;1.90;;;41.20;55.50;;;;;;5008627;28;20477;-71
2022/08/03 11:37:22;;;;;;;3.80;2.40;;;40.50;55.40;;;;;;5005383;28;20485;-71
2022/08/03 11:39:52;;;;;;;4.53;2.07;;;39.60;56.20;;;;;;5003803;28;20446;-71
2022/08/03 11:42:46;;;;;;;3.30;1.40;;;39.30;56.20;;;;;;5003870;28;20523;-72
2022/08/03 11:45:14;;;;;;;3.97;2.07;;;39.80;55.90;;;;;;4999145;28;20489;-72
2022/08/03 11:47:43;;;;;;;3.73;2.20;;;39.90;56.90;;;;;;5002375;28;20454;-72
2022/08/03 11:50:11;;;;;;;9.83;3.00;;;40.50;56.90;;;;;;5007656;28;20492;-72
2022/08/03 11:52:41;;;;;;;5.33;1.67;;;40.90;54.40;;;;;;5006014;28;20834;-72
2022/08/03 11:55:10;;;;;;;4.20;1.60;;;40.90;55.50;;;;;;5002039;28;20901;-71
2022/08/03 11:57:37;;;;;;;6.00;1.67;;;41.80;54.50;;;;;;5002575;28;20882;-71
2022/08/03 12:00:22;;;;;;;4.67;2.20;;;40.50;55.00;;;;;;5004298;28;20954;-72
2022/08/03 12:03:01;;;;;;;3.20;1.70;;;41.80;55.70;;;;;;5001328;28;20808;-72
2022/08/03 12:05:46;;;;;;;2.73;1.70;;;43.20;54.50;;;;;;5006069;28;20485;-71
2022/08/03 12:08:15;;;;;;;9.87;2.47;;;42.60;53.00;;;;;;5002958;28;20611;-72
2022/08/03 12:10:48;;;;;;;4.57;1.70;;;42.40;53.30;;;;;;4997896;28;20583;-72
2022/08/03 12:13:15;;;;;;;5.77;2.40;;;41.50;54.30;;;;;;5006101;28;20580;-72
2022/08/03 12:15:43;;;;;;;5.00;2.20;;;41.80;53.90;;;;;;5005280;28;20480;-72
2022/08/03 12:18:15;;;;;;;6.37;2.17;;;42.50;54.10;;;;;;4998111;28;20462;-71
2022/08/03 12:20:43;;;;;;;5.07;1.87;;;41.80;53.00;;;;;;5006957;28;20450;-71
2022/08/03 12:23:12;;;;;;;7.83;2.87;;;41.30;53.10;;;;;;5003827;28;20452;-71
2022/08/03 12:25:40;;;;;;;4.33;1.70;;;41.40;53.70;;;;;;5008629;28;20860;-71
2022/08/03 12:28:10;;;;;;;4.90;1.50;;;41.20;51.90;;;;;;5001869;28;20446;-72
2022/08/03 12:30:38;;;;;;;5.50;1.80;;;41.20;52.50;;;;;;5003928;28;20451;-72
2022/08/03 12:33:18;;;;;;;2.90;1.60;;;40.60;52.40;;;;;;5007694;28;20554;-71
2022/08/03 12:35:46;;;;;;;3.40;1.87;;;40.20;52.20;;;;;;5005862;28;20981;-70
2022/08/03 12:38:13;;;;;;;2.00;1.67;;;40.30;52.40;;;;;;5004229;28;20903;-72
2022/08/03 12:40:40;;;;;;;5.00;1.90;;;40.60;53.70;;;;;;5007216;28;20481;-72
2022/08/03 12:43:16;;;;;;;3.90;1.80;;;41.40;52.30;;;;;;5000430;28;20458;-72
2022/08/03 12:45:43;;;;;;;4.50;1.50;;;41.50;52.80;;;;;;5004204;28;20942;-72
2022/08/03 12:48:11;;;;;;;2.97;1.80;;;41.20;52.30;;;;;;5006615;28;20440;-72
2022/08/03 12:50:40;;;;;;;2.70;2.00;;;40.90;52.80;;;;;;5002226;28;20450;-72
2022/08/03 12:53:09;;;;;;;3.20;1.90;;;40.70;53.50;;;;;;5004755;28;20462;-72
2022/08/03 12:55:37;;;;;;;3.30;1.87;;;40.10;53.40;;;;;;5001524;28;20505;-72
2022/08/03 12:58:06;;;;;;;5.50;1.77;;;40.20;53.60;;;;;;5001429;28;20904;-71
2022/08/03 13:00:33;;;;;;;2.40;1.47;;;41.50;53.60;;;;;;4994906;28;20557;-72
2022/08/03 13:03:02;;;;;;;3.57;2.27;;;42.30;52.30;;;;;;5001591;28;20974;-72
2022/08/03 13:05:30;;;;;;;6.70;5.00;;;42.70;51.50;;;;;;5005138;28;20473;-71
2022/08/03 13:07:58;;;;;;;3.00;1.67;;;43.00;51.20;;;;;;5001057;28;20898;-72